sensor_id;sensor_type;location;lat;lon;timestamp;P1;durP1;ratioP1;P2;durP2;ratioP2
5022;SDS011;2530;47.990;7.866;2024-03-07T00:00:05;5.50;;;5.00;;
5022;SDS011;2530;47.990;7.866;2024-03-07T00:02:39;5.72;;;5.13;;
5022;SDS011;2530;47.990;7.866;2024-03-07T00:05:22;6.10;;;5.60;;
5022;SDS011;2530;47.990;7.866;2024-03-07T00:07:51;7.25;;;5.50;;
5022;SDS011;2530;47.990;7.866;2024-03-07T00:10:17;5.70;;;5.20;;
5022;SDS011;2530;47.990;7.866;2024-03-07T00:12:43;5.90;;;5.30;;
5022;SDS011;2530;47.990;7.866;2024-03-07T00:15:10;5.60;;;5.10;;
5022;SDS011;2530;47.990;7.866;2024-03-07T00:17:37;6.10;;;5.45;;
5022;SDS011;2530;47.990;7.866;2024-03-07T00:20:03;5.47;;;4.97;;
5022;SDS011;2530;47.990;7.866;2024-03-07T00:22:33;5.25;;;4.82;;
5022;SDS011;2530;47.990;7.866;2024-03-07T00:24:59;5.60;;;5.10;;
5022;SDS011;2530;47.990;7.866;2024-03-07T00:27:25;5.60;;;5.00;;
5022;SDS011;2530;47.990;7.866;2024-03-07T00:29:51;5.18;;;4.68;;
5022;SDS011;2530;47.990;7.866;2024-03-07T00:32:22;5.37;;;4.87;;
5022;SDS011;2530;47.990;7.866;2024-03-07T00:34:48;4.90;;;4.50;;
5022;SDS011;2530;47.990;7.866;2024-03-07T00:37:17;5.20;;;4.80;;
5022;SDS011;2530;47.990;7.866;2024-03-07T00:39:43;5.82;;;5.32;;
5022;SDS011;2530;47.990;7.866;2024-03-07T00:42:08;5.80;;;5.30;;
5022;SDS011;2530;47.990;7.866;2024-03-07T00:44:34;6.30;;;5.20;;
5022;SDS011;2530;47.990;7.866;2024-03-07T00:47:00;6.13;;;5.53;;
5022;SDS011;2530;47.990;7.866;2024-03-07T00:49:27;4.82;;;4.43;;
5022;SDS011;2530;47.990;7.866;2024-03-07T00:51:53;4.70;;;4.30;;
5022;SDS011;2530;47.990;7.866;2024-03-07T00:54:19;5.03;;;4.63;;
5022;SDS011;2530;47.990;7.866;2024-03-07T00:56:45;4.70;;;4.30;;
5022;SDS011;2530;47.990;7.866;2024-03-07T00:59:14;4.88;;;4.47;;
5022;SDS011;2530;47.990;7.866;2024-03-07T01:01:42;5.68;;;4.60;;
5022;SDS011;2530;47.990;7.866;2024-03-07T01:04:08;4.35;;;3.95;;
5022;SDS011;2530;47.990;7.866;2024-03-07T01:06:34;4.60;;;4.20;;
5022;SDS011;2530;47.990;7.866;2024-03-07T01:09:01;4.50;;;4.10;;
5022;SDS011;2530;47.990;7.866;2024-03-07T01:11:27;4.78;;;4.38;;
5022;SDS011;2530;47.990;7.866;2024-03-07T01:13:53;5.22;;;4.20;;
5022;SDS011;2530;47.990;7.866;2024-03-07T01:16:18;4.90;;;4.50;;
5022;SDS011;2530;47.990;7.866;2024-03-07T01:18:44;4.30;;;3.90;;
5022;SDS011;2530;47.990;7.866;2024-03-07T01:21:10;4.80;;;4.40;;
5022;SDS011;2530;47.990;7.866;2024-03-07T01:23:35;4.40;;;4.00;;
5022;SDS011;2530;47.990;7.866;2024-03-07T01:26:01;4.45;;;4.15;;
5022;SDS011;2530;47.990;7.866;2024-03-07T01:28:27;5.03;;;4.53;;
5022;SDS011;2530;47.990;7.866;2024-03-07T01:30:55;4.75;;;4.35;;
5022;SDS011;2530;47.990;7.866;2024-03-07T01:33:21;4.82;;;4.43;;
5022;SDS011;2530;47.990;7.866;2024-03-07T01:35:47;4.70;;;4.30;;
5022;SDS011;2530;47.990;7.866;2024-03-07T01:38:14;5.20;;;4.80;;
5022;SDS011;2530;47.990;7.866;2024-03-07T01:40:40;4.93;;;4.53;;
5022;SDS011;2530;47.990;7.866;2024-03-07T01:43:07;4.63;;;4.22;;
5022;SDS011;2530;47.990;7.866;2024-03-07T01:45:33;4.80;;;4.32;;
5022;SDS011;2530;47.990;7.866;2024-03-07T01:47:59;4.45;;;4.05;;
5022;SDS011;2530;47.990;7.866;2024-03-07T01:50:25;5.10;;;4.60;;
5022;SDS011;2530;47.990;7.866;2024-03-07T01:52:50;4.40;;;4.00;;
5022;SDS011;2530;47.990;7.866;2024-03-07T01:55:20;4.72;;;4.10;;
5022;SDS011;2530;47.990;7.866;2024-03-07T01:57:47;4.93;;;4.53;;
5022;SDS011;2530;47.990;7.866;2024-03-07T02:00:12;4.47;;;4.07;;
5022;SDS011;2530;47.990;7.866;2024-03-07T02:02:38;5.30;;;4.80;;
5022;SDS011;2530;47.990;7.866;2024-03-07T02:05:04;5.07;;;4.60;;
5022;SDS011;2530;47.990;7.866;2024-03-07T02:07:31;4.80;;;4.40;;
5022;SDS011;2530;47.990;7.866;2024-03-07T02:10:00;4.95;;;4.55;;
5022;SDS011;2530;47.990;7.866;2024-03-07T02:12:29;4.70;;;4.30;;
5022;SDS011;2530;47.990;7.866;2024-03-07T02:14:55;7.10;;;4.80;;
5022;SDS011;2530;47.990;7.866;2024-03-07T02:17:22;4.80;;;4.40;;
5022;SDS011;2530;47.990;7.866;2024-03-07T02:19:48;4.80;;;4.40;;
5022;SDS011;2530;47.990;7.866;2024-03-07T02:22:14;5.10;;;4.70;;
5022;SDS011;2530;47.990;7.866;2024-03-07T02:24:39;4.90;;;4.37;;
5022;SDS011;2530;47.990;7.866;2024-03-07T02:27:05;4.97;;;4.47;;
5022;SDS011;2530;47.990;7.866;2024-03-07T02:29:30;4.53;;;4.13;;
5022;SDS011;2530;47.990;7.866;2024-03-07T02:31:56;4.57;;;4.18;;
5022;SDS011;2530;47.990;7.866;2024-03-07T02:34:22;4.25;;;3.85;;
5022;SDS011;2530;47.990;7.866;2024-03-07T02:36:47;4.40;;;4.00;;
5022;SDS011;2530;47.990;7.866;2024-03-07T02:39:13;4.37;;;3.97;;
5022;SDS011;2530;47.990;7.866;2024-03-07T02:41:38;4.73;;;3.93;;
5022;SDS011;2530;47.990;7.866;2024-03-07T02:44:04;4.30;;;3.70;;
5022;SDS011;2530;47.990;7.866;2024-03-07T02:46:29;4.70;;;4.20;;
5022;SDS011;2530;47.990;7.866;2024-03-07T02:48:57;4.50;;;4.10;;
5022;SDS011;2530;47.990;7.866;2024-03-07T02:51:23;4.50;;;4.10;;
5022;SDS011;2530;47.990;7.866;2024-03-07T02:53:49;4.28;;;3.88;;
5022;SDS011;2530;47.990;7.866;2024-03-07T02:56:14;4.10;;;3.80;;
5022;SDS011;2530;47.990;7.866;2024-03-07T02:58:40;4.03;;;3.73;;
5022;SDS011;2530;47.990;7.866;2024-03-07T03:01:06;4.87;;;4.40;;
5022;SDS011;2530;47.990;7.866;2024-03-07T03:03:31;4.40;;;4.00;;
5022;SDS011;2530;47.990;7.866;2024-03-07T03:05:57;4.40;;;4.00;;
5022;SDS011;2530;47.990;7.866;2024-03-07T03:08:23;3.97;;;3.58;;
5022;SDS011;2530;47.990;7.866;2024-03-07T03:10:49;4.50;;;4.10;;
5022;SDS011;2530;47.990;7.866;2024-03-07T03:13:18;4.15;;;3.85;;
5022;SDS011;2530;47.990;7.866;2024-03-07T03:15:43;4.10;;;3.70;;
5022;SDS011;2530;47.990;7.866;2024-03-07T03:18:09;6.60;;;3.88;;
5022;SDS011;2530;47.990;7.866;2024-03-07T03:20:38;4.13;;;3.80;;
5022;SDS011;2530;47.990;7.866;2024-03-07T03:23:04;4.20;;;3.80;;
5022;SDS011;2530;47.990;7.866;2024-03-07T03:25:30;3.80;;;3.50;;
5022;SDS011;2530;47.990;7.866;2024-03-07T03:28:00;4.20;;;3.80;;
5022;SDS011;2530;47.990;7.866;2024-03-07T03:30:26;3.57;;;3.27;;
5022;SDS011;2530;47.990;7.866;2024-03-07T03:32:51;3.90;;;3.50;;
5022;SDS011;2530;47.990;7.866;2024-03-07T03:35:17;3.60;;;3.30;;
5022;SDS011;2530;47.990;7.866;2024-03-07T03:37:43;3.70;;;3.30;;
5022;SDS011;2530;47.990;7.866;2024-03-07T03:40:09;4.03;;;3.70;;
5022;SDS011;2530;47.990;7.866;2024-03-07T03:42:39;4.30;;;3.50;;
5022;SDS011;2530;47.990;7.866;2024-03-07T03:45:05;3.45;;;3.15;;
5022;SDS011;2530;47.990;7.866;2024-03-07T03:47:36;3.53;;;3.13;;
5022;SDS011;2530;47.990;7.866;2024-03-07T03:50:03;3.50;;;3.20;;
5022;SDS011;2530;47.990;7.866;2024-03-07T03:52:29;3.40;;;3.10;;
5022;SDS011;2530;47.990;7.866;2024-03-07T03:54:55;3.70;;;3.40;;
5022;SDS011;2530;47.990;7.866;2024-03-07T03:57:21;3.00;;;2.80;;
5022;SDS011;2530;47.990;7.866;2024-03-07T03:59:47;2.80;;;2.60;;
5022;SDS011;2530;47.990;7.866;2024-03-07T04:02:13;3.37;;;3.07;;
5022;SDS011;2530;47.990;7.866;2024-03-07T04:04:39;2.50;;;2.30;;
5022;SDS011;2530;47.990;7.866;2024-03-07T04:07:05;3.10;;;2.80;;
5022;SDS011;2530;47.990;7.866;2024-03-07T04:09:31;2.95;;;2.70;;
5022;SDS011;2530;47.990;7.866;2024-03-07T04:11:56;2.97;;;2.67;;
5022;SDS011;2530;47.990;7.866;2024-03-07T04:14:25;2.67;;;2.47;;
5022;SDS011;2530;47.990;7.866;2024-03-07T04:16:51;3.30;;;3.00;;
5022;SDS011;2530;47.990;7.866;2024-03-07T04:19:19;3.00;;;2.70;;
5022;SDS011;2530;47.990;7.866;2024-03-07T04:21:45;3.33;;;3.03;;
5022;SDS011;2530;47.990;7.866;2024-03-07T04:24:11;3.70;;;3.40;;
5022;SDS011;2530;47.990;7.866;2024-03-07T04:26:37;3.50;;;3.20;;
5022;SDS011;2530;47.990;7.866;2024-03-07T04:29:03;3.90;;;3.60;;
5022;SDS011;2530;47.990;7.866;2024-03-07T04:31:28;3.50;;;3.20;;
5022;SDS011;2530;47.990;7.866;2024-03-07T04:33:54;4.40;;;4.00;;
5022;SDS011;2530;47.990;7.866;2024-03-07T04:36:19;4.15;;;3.75;;
5022;SDS011;2530;47.990;7.866;2024-03-07T04:38:45;4.65;;;3.72;;
5022;SDS011;2530;47.990;7.866;2024-03-07T04:41:11;4.67;;;4.20;;
5022;SDS011;2530;47.990;7.866;2024-03-07T04:43:36;3.95;;;3.33;;
5022;SDS011;2530;47.990;7.866;2024-03-07T04:46:02;4.88;;;4.00;;
5022;SDS011;2530;47.990;7.866;2024-03-07T04:48:30;3.92;;;3.53;;
5022;SDS011;2530;47.990;7.866;2024-03-07T04:50:55;3.83;;;3.53;;
5022;SDS011;2530;47.990;7.866;2024-03-07T04:53:22;4.50;;;3.92;;
5022;SDS011;2530;47.990;7.866;2024-03-07T04:55:47;4.90;;;4.40;;
5022;SDS011;2530;47.990;7.866;2024-03-07T04:58:13;4.30;;;3.90;;
5022;SDS011;2530;47.990;7.866;2024-03-07T05:00:38;4.72;;;4.22;;
5022;SDS011;2530;47.990;7.866;2024-03-07T05:03:04;4.57;;;3.70;;
5022;SDS011;2530;47.990;7.866;2024-03-07T05:05:29;4.90;;;4.40;;
5022;SDS011;2530;47.990;7.866;2024-03-07T05:07:55;5.10;;;4.60;;
5022;SDS011;2530;47.990;7.866;2024-03-07T05:10:20;4.60;;;4.20;;
5022;SDS011;2530;47.990;7.866;2024-03-07T05:12:46;4.10;;;3.70;;
5022;SDS011;2530;47.990;7.866;2024-03-07T05:15:12;5.43;;;4.63;;
5022;SDS011;2530;47.990;7.866;2024-03-07T05:17:37;4.70;;;4.30;;
5022;SDS011;2530;47.990;7.866;2024-03-07T05:20:04;4.40;;;4.00;;
5022;SDS011;2530;47.990;7.866;2024-03-07T05:22:37;4.40;;;4.00;;
5022;SDS011;2530;47.990;7.866;2024-03-07T05:25:09;5.10;;;4.60;;
5022;SDS011;2530;47.990;7.866;2024-03-07T05:27:35;5.93;;;5.32;;
5022;SDS011;2530;47.990;7.866;2024-03-07T05:30:01;5.78;;;4.97;;
5022;SDS011;2530;47.990;7.866;2024-03-07T05:32:31;5.40;;;4.90;;
5022;SDS011;2530;47.990;7.866;2024-03-07T05:34:59;6.03;;;5.43;;
5022;SDS011;2530;47.990;7.866;2024-03-07T05:37:24;6.50;;;5.07;;
5022;SDS011;2530;47.990;7.866;2024-03-07T05:39:50;6.20;;;5.10;;
5022;SDS011;2530;47.990;7.866;2024-03-07T05:42:16;6.30;;;4.68;;
5022;SDS011;2530;47.990;7.866;2024-03-07T05:44:42;5.68;;;4.80;;
5022;SDS011;2530;47.990;7.866;2024-03-07T05:47:07;5.88;;;5.22;;
5022;SDS011;2530;47.990;7.866;2024-03-07T05:49:34;6.87;;;5.40;;
5022;SDS011;2530;47.990;7.866;2024-03-07T05:51:59;5.90;;;4.90;;
5022;SDS011;2530;47.990;7.866;2024-03-07T05:54:25;5.65;;;5.05;;
5022;SDS011;2530;47.990;7.866;2024-03-07T05:56:50;7.70;;;6.50;;
5022;SDS011;2530;47.990;7.866;2024-03-07T05:59:16;6.73;;;6.03;;
5022;SDS011;2530;47.990;7.866;2024-03-07T06:01:42;7.95;;;6.45;;
5022;SDS011;2530;47.990;7.866;2024-03-07T06:04:07;6.90;;;6.00;;
5022;SDS011;2530;47.990;7.866;2024-03-07T06:06:35;8.00;;;6.50;;
5022;SDS011;2530;47.990;7.866;2024-03-07T06:09:02;6.82;;;6.13;;
5022;SDS011;2530;47.990;7.866;2024-03-07T06:11:33;6.97;;;5.82;;
5022;SDS011;2530;47.990;7.866;2024-03-07T06:14:05;8.35;;;6.57;;
5022;SDS011;2530;47.990;7.866;2024-03-07T06:16:32;6.95;;;6.25;;
5022;SDS011;2530;47.990;7.866;2024-03-07T06:19:00;8.90;;;7.78;;
5022;SDS011;2530;47.990;7.866;2024-03-07T06:21:27;7.50;;;6.70;;
5022;SDS011;2530;47.990;7.866;2024-03-07T06:23:53;8.48;;;7.32;;
5022;SDS011;2530;47.990;7.866;2024-03-07T06:26:31;7.88;;;7.07;;
5022;SDS011;2530;47.990;7.866;2024-03-07T06:29:24;9.37;;;6.50;;
5022;SDS011;2530;47.990;7.866;2024-03-07T06:31:50;8.50;;;6.60;;
5022;SDS011;2530;47.990;7.866;2024-03-07T06:34:18;7.63;;;6.35;;
5022;SDS011;2530;47.990;7.866;2024-03-07T06:36:44;10.63;;;7.00;;
5022;SDS011;2530;47.990;7.866;2024-03-07T06:39:10;7.80;;;6.10;;
5022;SDS011;2530;47.990;7.866;2024-03-07T06:41:35;9.25;;;7.45;;
5022;SDS011;2530;47.990;7.866;2024-03-07T06:44:02;10.40;;;7.20;;
5022;SDS011;2530;47.990;7.866;2024-03-07T06:46:27;7.97;;;7.05;;
5022;SDS011;2530;47.990;7.866;2024-03-07T06:48:53;8.20;;;7.30;;
5022;SDS011;2530;47.990;7.866;2024-03-07T06:51:20;9.47;;;7.80;;
5022;SDS011;2530;47.990;7.866;2024-03-07T06:53:47;10.32;;;7.80;;
5022;SDS011;2530;47.990;7.866;2024-03-07T06:56:13;8.83;;;7.93;;
5022;SDS011;2530;47.990;7.866;2024-03-07T06:58:40;12.60;;;9.10;;
5022;SDS011;2530;47.990;7.866;2024-03-07T07:01:07;10.65;;;8.13;;
5022;SDS011;2530;47.990;7.866;2024-03-07T07:03:35;10.82;;;8.07;;
5022;SDS011;2530;47.990;7.866;2024-03-07T07:06:01;9.47;;;8.10;;
5022;SDS011;2530;47.990;7.866;2024-03-07T07:08:27;10.17;;;8.47;;
5022;SDS011;2530;47.990;7.866;2024-03-07T07:10:55;11.52;;;9.25;;
5022;SDS011;2530;47.990;7.866;2024-03-07T07:13:21;11.50;;;9.23;;
5022;SDS011;2530;47.990;7.866;2024-03-07T07:15:47;11.90;;;9.03;;
5022;SDS011;2530;47.990;7.866;2024-03-07T07:18:13;16.50;;;11.57;;
5022;SDS011;2530;47.990;7.866;2024-03-07T07:20:39;18.70;;;13.03;;
5022;SDS011;2530;47.990;7.866;2024-03-07T07:23:04;16.47;;;12.57;;
5022;SDS011;2530;47.990;7.866;2024-03-07T07:25:30;18.98;;;13.70;;
5022;SDS011;2530;47.990;7.866;2024-03-07T07:27:56;16.67;;;12.20;;
5022;SDS011;2530;47.990;7.866;2024-03-07T07:30:22;16.77;;;12.57;;
5022;SDS011;2530;47.990;7.866;2024-03-07T07:32:48;18.40;;;12.57;;
5022;SDS011;2530;47.990;7.866;2024-03-07T07:35:15;20.48;;;13.98;;
5022;SDS011;2530;47.990;7.866;2024-03-07T07:37:42;17.73;;;13.80;;
5022;SDS011;2530;47.990;7.866;2024-03-07T07:40:09;20.00;;;13.97;;
5022;SDS011;2530;47.990;7.866;2024-03-07T07:42:42;18.15;;;14.02;;
5022;SDS011;2530;47.990;7.866;2024-03-07T07:45:08;21.33;;;15.93;;
5022;SDS011;2530;47.990;7.866;2024-03-07T07:47:41;20.40;;;14.77;;
5022;SDS011;2530;47.990;7.866;2024-03-07T07:50:11;19.40;;;14.13;;
5022;SDS011;2530;47.990;7.866;2024-03-07T07:52:45;18.90;;;13.60;;
5022;SDS011;2530;47.990;7.866;2024-03-07T07:55:15;17.88;;;13.88;;
5022;SDS011;2530;47.990;7.866;2024-03-07T07:57:42;18.30;;;13.38;;
5022;SDS011;2530;47.990;7.866;2024-03-07T08:00:10;16.92;;;12.95;;
5022;SDS011;2530;47.990;7.866;2024-03-07T08:02:37;16.95;;;13.30;;
5022;SDS011;2530;47.990;7.866;2024-03-07T08:05:02;19.30;;;13.65;;
5022;SDS011;2530;47.990;7.866;2024-03-07T08:07:30;17.50;;;13.48;;
5022;SDS011;2530;47.990;7.866;2024-03-07T08:09:56;13.90;;;12.40;;
5022;SDS011;2530;47.990;7.866;2024-03-07T08:12:21;17.00;;;13.10;;
5022;SDS011;2530;47.990;7.866;2024-03-07T08:14:47;18.40;;;13.38;;
5022;SDS011;2530;47.990;7.866;2024-03-07T08:17:13;17.05;;;12.57;;
5022;SDS011;2530;47.990;7.866;2024-03-07T08:19:38;17.13;;;13.40;;
5022;SDS011;2530;47.990;7.866;2024-03-07T08:22:04;17.52;;;13.27;;
5022;SDS011;2530;47.990;7.866;2024-03-07T08:24:30;17.15;;;13.52;;
5022;SDS011;2530;47.990;7.866;2024-03-07T08:26:57;17.13;;;13.75;;
5022;SDS011;2530;47.990;7.866;2024-03-07T08:29:22;16.35;;;13.63;;
5022;SDS011;2530;47.990;7.866;2024-03-07T08:31:49;14.20;;;12.40;;
5022;SDS011;2530;47.990;7.866;2024-03-07T08:34:14;17.20;;;12.83;;
5022;SDS011;2530;47.990;7.866;2024-03-07T08:36:40;16.97;;;13.90;;
5022;SDS011;2530;47.990;7.866;2024-03-07T08:39:05;16.45;;;13.30;;
5022;SDS011;2530;47.990;7.866;2024-03-07T08:41:35;16.43;;;13.47;;
5022;SDS011;2530;47.990;7.866;2024-03-07T08:44:06;16.80;;;13.82;;
5022;SDS011;2530;47.990;7.866;2024-03-07T08:46:31;18.00;;;13.48;;
5022;SDS011;2530;47.990;7.866;2024-03-07T08:48:57;15.98;;;12.57;;
5022;SDS011;2530;47.990;7.866;2024-03-07T08:51:23;15.93;;;12.73;;
5022;SDS011;2530;47.990;7.866;2024-03-07T08:53:48;16.30;;;13.63;;
5022;SDS011;2530;47.990;7.866;2024-03-07T08:56:15;15.15;;;13.55;;
5022;SDS011;2530;47.990;7.866;2024-03-07T08:58:40;18.30;;;14.02;;
5022;SDS011;2530;47.990;7.866;2024-03-07T09:01:08;17.13;;;12.70;;
5022;SDS011;2530;47.990;7.866;2024-03-07T09:03:34;15.83;;;13.60;;
5022;SDS011;2530;47.990;7.866;2024-03-07T09:05:59;18.57;;;15.07;;
5022;SDS011;2530;47.990;7.866;2024-03-07T09:08:25;18.70;;;14.82;;
5022;SDS011;2530;47.990;7.866;2024-03-07T09:10:51;23.48;;;18.10;;
5022;SDS011;2530;47.990;7.866;2024-03-07T09:13:20;25.40;;;18.88;;
5022;SDS011;2530;47.990;7.866;2024-03-07T09:15:46;25.77;;;19.02;;
5022;SDS011;2530;47.990;7.866;2024-03-07T09:18:11;24.42;;;18.50;;
5022;SDS011;2530;47.990;7.866;2024-03-07T09:20:37;26.75;;;20.05;;
5022;SDS011;2530;47.990;7.866;2024-03-07T09:23:03;26.70;;;19.50;;
5022;SDS011;2530;47.990;7.866;2024-03-07T09:25:29;28.35;;;19.73;;
5022;SDS011;2530;47.990;7.866;2024-03-07T09:27:58;25.80;;;19.10;;
5022;SDS011;2530;47.990;7.866;2024-03-07T09:30:25;25.73;;;19.07;;
5022;SDS011;2530;47.990;7.866;2024-03-07T09:32:52;23.52;;;18.38;;
5022;SDS011;2530;47.990;7.866;2024-03-07T09:35:20;23.55;;;18.38;;
5022;SDS011;2530;47.990;7.866;2024-03-07T09:37:46;25.33;;;18.90;;
5022;SDS011;2530;47.990;7.866;2024-03-07T09:40:12;25.00;;;19.37;;
5022;SDS011;2530;47.990;7.866;2024-03-07T09:42:45;26.97;;;20.00;;
5022;SDS011;2530;47.990;7.866;2024-03-07T09:45:13;24.60;;;19.25;;
5022;SDS011;2530;47.990;7.866;2024-03-07T09:47:44;23.67;;;19.08;;
5022;SDS011;2530;47.990;7.866;2024-03-07T09:50:12;27.17;;;19.70;;
5022;SDS011;2530;47.990;7.866;2024-03-07T09:52:40;24.20;;;19.63;;
5022;SDS011;2530;47.990;7.866;2024-03-07T09:55:07;24.83;;;20.00;;
5022;SDS011;2530;47.990;7.866;2024-03-07T09:57:34;27.43;;;20.67;;
5022;SDS011;2530;47.990;7.866;2024-03-07T10:00:01;25.38;;;20.58;;
5022;SDS011;2530;47.990;7.866;2024-03-07T10:02:28;28.15;;;20.70;;
5022;SDS011;2530;47.990;7.866;2024-03-07T10:04:56;28.58;;;21.40;;
5022;SDS011;2530;47.990;7.866;2024-03-07T10:07:22;28.73;;;21.40;;
5022;SDS011;2530;47.990;7.866;2024-03-07T10:09:48;30.90;;;22.00;;
5022;SDS011;2530;47.990;7.866;2024-03-07T10:12:16;29.30;;;22.70;;
5022;SDS011;2530;47.990;7.866;2024-03-07T10:14:50;27.85;;;22.00;;
5022;SDS011;2530;47.990;7.866;2024-03-07T10:17:18;27.80;;;21.25;;
5022;SDS011;2530;47.990;7.866;2024-03-07T10:19:47;27.63;;;22.42;;
5022;SDS011;2530;47.990;7.866;2024-03-07T10:22:15;28.37;;;22.23;;
5022;SDS011;2530;47.990;7.866;2024-03-07T10:24:55;27.58;;;21.40;;
5022;SDS011;2530;47.990;7.866;2024-03-07T10:27:25;27.90;;;21.73;;
5022;SDS011;2530;47.990;7.866;2024-03-07T10:29:52;28.30;;;22.38;;
5022;SDS011;2530;47.990;7.866;2024-03-07T10:32:22;31.13;;;22.27;;
5022;SDS011;2530;47.990;7.866;2024-03-07T10:34:49;27.70;;;21.33;;
5022;SDS011;2530;47.990;7.866;2024-03-07T10:37:15;32.88;;;23.08;;
5022;SDS011;2530;47.990;7.866;2024-03-07T10:39:43;30.00;;;22.05;;
5022;SDS011;2530;47.990;7.866;2024-03-07T10:42:09;25.55;;;20.17;;
5022;SDS011;2530;47.990;7.866;2024-03-07T10:44:46;25.85;;;20.25;;
5022;SDS011;2530;47.990;7.866;2024-03-07T10:47:16;27.23;;;20.20;;
5022;SDS011;2530;47.990;7.866;2024-03-07T10:49:48;28.83;;;22.40;;
5022;SDS011;2530;47.990;7.866;2024-03-07T10:52:34;34.08;;;26.00;;
5022;SDS011;2530;47.990;7.866;2024-03-07T10:55:34;37.75;;;27.70;;
5022;SDS011;2530;47.990;7.866;2024-03-07T10:58:09;38.17;;;27.52;;
5022;SDS011;2530;47.990;7.866;2024-03-07T11:00:38;38.30;;;27.60;;
5022;SDS011;2530;47.990;7.866;2024-03-07T11:03:10;36.92;;;26.05;;
5022;SDS011;2530;47.990;7.866;2024-03-07T11:05:36;34.30;;;27.30;;
5022;SDS011;2530;47.990;7.866;2024-03-07T11:08:02;35.72;;;26.80;;
5022;SDS011;2530;47.990;7.866;2024-03-07T11:10:36;31.38;;;25.02;;
5022;SDS011;2530;47.990;7.866;2024-03-07T11:13:02;33.03;;;24.88;;
5022;SDS011;2530;47.990;7.866;2024-03-07T11:15:29;34.13;;;25.23;;
5022;SDS011;2530;47.990;7.866;2024-03-07T11:17:56;33.00;;;25.65;;
5022;SDS011;2530;47.990;7.866;2024-03-07T11:20:24;31.23;;;23.75;;
5022;SDS011;2530;47.990;7.866;2024-03-07T11:23:24;33.22;;;25.95;;
5022;SDS011;2530;47.990;7.866;2024-03-07T11:26:06;32.75;;;25.60;;
5022;SDS011;2530;47.990;7.866;2024-03-07T11:28:33;29.63;;;23.73;;
5022;SDS011;2530;47.990;7.866;2024-03-07T11:36:46;33.55;;;23.92;;
5022;SDS011;2530;47.990;7.866;2024-03-07T11:39:38;31.00;;;23.67;;
5022;SDS011;2530;47.990;7.866;2024-03-07T11:42:08;30.23;;;22.70;;
5022;SDS011;2530;47.990;7.866;2024-03-07T11:44:44;29.77;;;22.73;;
5022;SDS011;2530;47.990;7.866;2024-03-07T11:47:11;30.30;;;22.75;;
5022;SDS011;2530;47.990;7.866;2024-03-07T11:49:37;26.73;;;20.90;;
5022;SDS011;2530;47.990;7.866;2024-03-07T11:52:03;24.02;;;20.13;;
5022;SDS011;2530;47.990;7.866;2024-03-07T11:54:36;27.90;;;21.35;;
5022;SDS011;2530;47.990;7.866;2024-03-07T11:57:11;27.83;;;22.58;;
5022;SDS011;2530;47.990;7.866;2024-03-07T11:59:41;27.35;;;22.00;;
5022;SDS011;2530;47.990;7.866;2024-03-07T12:02:13;29.10;;;22.45;;
5022;SDS011;2530;47.990;7.866;2024-03-07T12:04:43;29.13;;;22.88;;
5022;SDS011;2530;47.990;7.866;2024-03-07T12:07:09;28.33;;;22.90;;
5022;SDS011;2530;47.990;7.866;2024-03-07T12:09:38;27.80;;;23.30;;
5022;SDS011;2530;47.990;7.866;2024-03-07T12:12:05;31.55;;;23.73;;
5022;SDS011;2530;47.990;7.866;2024-03-07T12:14:31;30.15;;;22.95;;
5022;SDS011;2530;47.990;7.866;2024-03-07T12:16:59;28.95;;;23.10;;
5022;SDS011;2530;47.990;7.866;2024-03-07T12:19:25;28.35;;;21.92;;
5022;SDS011;2530;47.990;7.866;2024-03-07T12:21:52;32.50;;;23.00;;
5022;SDS011;2530;47.990;7.866;2024-03-07T12:24:21;30.30;;;22.63;;
5022;SDS011;2530;47.990;7.866;2024-03-07T12:26:47;26.73;;;21.53;;
5022;SDS011;2530;47.990;7.866;2024-03-07T12:29:13;27.60;;;21.93;;
5022;SDS011;2530;47.990;7.866;2024-03-07T12:31:39;24.85;;;20.75;;
5022;SDS011;2530;47.990;7.866;2024-03-07T12:34:05;23.20;;;19.30;;
5022;SDS011;2530;47.990;7.866;2024-03-07T12:36:31;27.50;;;21.83;;
5022;SDS011;2530;47.990;7.866;2024-03-07T12:39:31;25.13;;;20.77;;
5022;SDS011;2530;47.990;7.866;2024-03-07T12:42:11;26.25;;;20.67;;
5022;SDS011;2530;47.990;7.866;2024-03-07T12:44:41;27.73;;;20.92;;
5022;SDS011;2530;47.990;7.866;2024-03-07T12:47:10;26.03;;;20.50;;
5022;SDS011;2530;47.990;7.866;2024-03-07T12:49:38;27.67;;;21.33;;
5022;SDS011;2530;47.990;7.866;2024-03-07T12:52:03;25.20;;;20.00;;
5022;SDS011;2530;47.990;7.866;2024-03-07T12:54:30;25.42;;;20.17;;
5022;SDS011;2530;47.990;7.866;2024-03-07T12:56:56;25.73;;;20.00;;
5022;SDS011;2530;47.990;7.866;2024-03-07T12:59:21;26.88;;;20.33;;
5022;SDS011;2530;47.990;7.866;2024-03-07T13:01:49;27.85;;;21.95;;
5022;SDS011;2530;47.990;7.866;2024-03-07T13:04:15;27.98;;;21.88;;
5022;SDS011;2530;47.990;7.866;2024-03-07T13:06:41;27.13;;;20.60;;
5022;SDS011;2530;47.990;7.866;2024-03-07T13:09:12;23.80;;;20.40;;
5022;SDS011;2530;47.990;7.866;2024-03-07T13:11:51;27.42;;;21.67;;
5022;SDS011;2530;47.990;7.866;2024-03-07T13:14:18;28.08;;;21.60;;
5022;SDS011;2530;47.990;7.866;2024-03-07T13:16:43;25.40;;;22.20;;
5022;SDS011;2530;47.990;7.866;2024-03-07T13:19:10;24.40;;;20.20;;
5022;SDS011;2530;47.990;7.866;2024-03-07T13:21:37;25.75;;;19.30;;
5022;SDS011;2530;47.990;7.866;2024-03-07T13:24:04;26.80;;;20.73;;
5022;SDS011;2530;47.990;7.866;2024-03-07T13:26:30;27.30;;;21.85;;
5022;SDS011;2530;47.990;7.866;2024-03-07T13:28:56;24.20;;;20.45;;
5022;SDS011;2530;47.990;7.866;2024-03-07T13:31:26;25.55;;;20.98;;
5022;SDS011;2530;47.990;7.866;2024-03-07T13:33:53;26.92;;;21.75;;
5022;SDS011;2530;47.990;7.866;2024-03-07T13:36:19;25.17;;;21.77;;
5022;SDS011;2530;47.990;7.866;2024-03-07T13:38:50;28.58;;;22.38;;
5022;SDS011;2530;47.990;7.866;2024-03-07T13:41:18;27.67;;;22.77;;
5022;SDS011;2530;47.990;7.866;2024-03-07T13:43:44;25.85;;;20.83;;
5022;SDS011;2530;47.990;7.866;2024-03-07T13:46:10;26.37;;;22.33;;
5022;SDS011;2530;47.990;7.866;2024-03-07T13:48:37;28.27;;;22.30;;
5022;SDS011;2530;47.990;7.866;2024-03-07T13:51:03;27.05;;;22.95;;
5022;SDS011;2530;47.990;7.866;2024-03-07T13:53:32;28.17;;;21.88;;
5022;SDS011;2530;47.990;7.866;2024-03-07T13:59:10;27.73;;;22.02;;
5022;SDS011;2530;47.990;7.866;2024-03-07T14:07:15;28.33;;;23.65;;
5022;SDS011;2530;47.990;7.866;2024-03-07T14:10:06;27.45;;;22.15;;
5022;SDS011;2530;47.990;7.866;2024-03-07T14:16:15;26.15;;;20.50;;
5022;SDS011;2530;47.990;7.866;2024-03-07T14:22:14;24.55;;;19.20;;
5022;SDS011;2530;47.990;7.866;2024-03-07T14:30:49;24.75;;;18.55;;
5022;SDS011;2530;47.990;7.866;2024-03-07T14:33:19;25.20;;;19.02;;
5022;SDS011;2530;47.990;7.866;2024-03-07T14:36:00;25.80;;;19.50;;
5022;SDS011;2530;47.990;7.866;2024-03-07T14:41:04;22.50;;;18.08;;
5022;SDS011;2530;47.990;7.866;2024-03-07T14:43:32;24.88;;;18.88;;
5022;SDS011;2530;47.990;7.866;2024-03-07T14:45:59;19.77;;;16.98;;
5022;SDS011;2530;47.990;7.866;2024-03-07T14:48:25;24.90;;;18.40;;
5022;SDS011;2530;47.990;7.866;2024-03-07T14:50:52;23.02;;;18.10;;
5022;SDS011;2530;47.990;7.866;2024-03-07T14:53:18;22.67;;;17.98;;
5022;SDS011;2530;47.990;7.866;2024-03-07T14:55:45;24.27;;;18.17;;
5022;SDS011;2530;47.990;7.866;2024-03-07T14:58:11;22.80;;;17.80;;
5022;SDS011;2530;47.990;7.866;2024-03-07T15:00:39;23.25;;;17.65;;
5022;SDS011;2530;47.990;7.866;2024-03-07T15:03:12;25.58;;;19.15;;
5022;SDS011;2530;47.990;7.866;2024-03-07T15:05:43;24.83;;;17.92;;
5022;SDS011;2530;47.990;7.866;2024-03-07T15:08:12;24.33;;;18.73;;
5022;SDS011;2530;47.990;7.866;2024-03-07T15:10:38;24.83;;;18.77;;
5022;SDS011;2530;47.990;7.866;2024-03-07T15:13:13;24.27;;;19.15;;
5022;SDS011;2530;47.990;7.866;2024-03-07T15:15:39;23.80;;;18.20;;
5022;SDS011;2530;47.990;7.866;2024-03-07T15:18:05;22.53;;;17.87;;
5022;SDS011;2530;47.990;7.866;2024-03-07T15:20:31;23.15;;;18.48;;
5022;SDS011;2530;47.990;7.866;2024-03-07T15:22:57;27.27;;;19.27;;
5022;SDS011;2530;47.990;7.866;2024-03-07T15:25:25;23.23;;;17.85;;
5022;SDS011;2530;47.990;7.866;2024-03-07T15:27:52;22.88;;;18.85;;
5022;SDS011;2530;47.990;7.866;2024-03-07T15:30:21;26.50;;;18.40;;
5022;SDS011;2530;47.990;7.866;2024-03-07T15:32:49;24.40;;;19.15;;